sensor_id;sensor_type;location;lat;lon;timestamp;P1;durP1;ratioP1;P2;durP2;ratioP2
41693;SDS011;27377;50.666;9.150;2024-02-15T00:00:13;9.60;;;7.30;;
41693;SDS011;27377;50.666;9.150;2024-02-15T00:03:00;9.40;;;7.78;;
41693;SDS011;27377;50.666;9.150;2024-02-15T00:05:54;9.80;;;8.02;;
41693;SDS011;27377;50.666;9.150;2024-02-15T00:08:39;13.15;;;8.10;;
41693;SDS011;27377;50.666;9.150;2024-02-15T00:11:24;10.63;;;8.88;;
41693;SDS011;27377;50.666;9.150;2024-02-15T00:14:32;10.73;;;8.75;;
41693;SDS011;27377;50.666;9.150;2024-02-15T00:17:16;9.55;;;8.55;;
41693;SDS011;27377;50.666;9.150;2024-02-15T00:20:11;11.25;;;9.15;;
41693;SDS011;27377;50.666;9.150;2024-02-15T00:23:04;11.30;;;9.20;;
41693;SDS011;27377;50.666;9.150;2024-02-15T00:25:52;11.50;;;9.03;;
41693;SDS011;27377;50.666;9.150;2024-02-15T00:28:44;12.88;;;9.77;;
41693;SDS011;27377;50.666;9.150;2024-02-15T00:31:31;11.27;;;9.80;;
41693;SDS011;27377;50.666;9.150;2024-02-15T00:34:22;13.50;;;10.10;;
41693;SDS011;27377;50.666;9.150;2024-02-15T00:37:10;12.52;;;9.90;;
41693;SDS011;27377;50.666;9.150;2024-02-15T00:39:58;14.60;;;10.75;;
41693;SDS011;27377;50.666;9.150;2024-02-15T00:42:42;14.43;;;10.55;;
41693;SDS011;27377;50.666;9.150;2024-02-15T00:45:27;13.50;;;10.70;;
41693;SDS011;27377;50.666;9.150;2024-02-15T00:48:11;13.43;;;10.95;;
41693;SDS011;27377;50.666;9.150;2024-02-15T00:50:56;14.35;;;11.23;;
41693;SDS011;27377;50.666;9.150;2024-02-15T00:53:41;14.48;;;10.98;;
41693;SDS011;27377;50.666;9.150;2024-02-15T00:56:25;13.73;;;11.10;;
41693;SDS011;27377;50.666;9.150;2024-02-15T00:59:10;13.85;;;10.95;;
41693;SDS011;27377;50.666;9.150;2024-02-15T01:01:54;14.40;;;10.85;;
41693;SDS011;27377;50.666;9.150;2024-02-15T01:04:38;15.13;;;11.23;;
41693;SDS011;27377;50.666;9.150;2024-02-15T01:07:22;14.45;;;11.70;;
41693;SDS011;27377;50.666;9.150;2024-02-15T01:10:10;15.02;;;11.70;;
41693;SDS011;27377;50.666;9.150;2024-02-15T01:12:54;15.68;;;12.13;;
41693;SDS011;27377;50.666;9.150;2024-02-15T01:15:38;15.75;;;11.63;;
41693;SDS011;27377;50.666;9.150;2024-02-15T01:18:25;15.60;;;12.00;;
41693;SDS011;27377;50.666;9.150;2024-02-15T01:21:12;15.68;;;12.20;;
41693;SDS011;27377;50.666;9.150;2024-02-15T01:23:57;16.20;;;12.43;;
41693;SDS011;27377;50.666;9.150;2024-02-15T01:26:41;17.88;;;12.68;;
41693;SDS011;27377;50.666;9.150;2024-02-15T01:29:25;16.90;;;12.80;;
41693;SDS011;27377;50.666;9.150;2024-02-15T01:32:09;17.63;;;12.40;;
41693;SDS011;27377;50.666;9.150;2024-02-15T01:34:53;17.58;;;12.48;;
41693;SDS011;27377;50.666;9.150;2024-02-15T01:37:38;17.57;;;12.37;;
41693;SDS011;27377;50.666;9.150;2024-02-15T01:40:22;18.73;;;12.85;;
41693;SDS011;27377;50.666;9.150;2024-02-15T01:43:07;17.02;;;12.45;;
41693;SDS011;27377;50.666;9.150;2024-02-15T01:45:52;17.70;;;12.17;;
41693;SDS011;27377;50.666;9.150;2024-02-15T01:48:37;18.42;;;12.77;;
41693;SDS011;27377;50.666;9.150;2024-02-15T01:51:23;17.43;;;12.67;;
41693;SDS011;27377;50.666;9.150;2024-02-15T01:54:11;18.23;;;13.10;;
41693;SDS011;27377;50.666;9.150;2024-02-15T01:56:57;18.40;;;13.38;;
41693;SDS011;27377;50.666;9.150;2024-02-15T01:59:41;21.10;;;13.57;;
41693;SDS011;27377;50.666;9.150;2024-02-15T02:02:26;19.13;;;12.95;;
41693;SDS011;27377;50.666;9.150;2024-02-15T02:05:15;18.90;;;13.45;;
41693;SDS011;27377;50.666;9.150;2024-02-15T02:07:59;18.98;;;12.90;;
41693;SDS011;27377;50.666;9.150;2024-02-15T02:10:45;19.17;;;13.30;;
41693;SDS011;27377;50.666;9.150;2024-02-15T02:13:30;20.58;;;13.48;;
41693;SDS011;27377;50.666;9.150;2024-02-15T02:16:30;19.33;;;13.48;;
41693;SDS011;27377;50.666;9.150;2024-02-15T02:19:19;17.90;;;13.23;;
41693;SDS011;27377;50.666;9.150;2024-02-15T02:22:03;18.88;;;13.70;;
41693;SDS011;27377;50.666;9.150;2024-02-15T02:27:47;18.80;;;13.48;;
41693;SDS011;27377;50.666;9.150;2024-02-15T02:30:32;19.65;;;13.55;;
41693;SDS011;27377;50.666;9.150;2024-02-15T02:33:16;17.63;;;13.73;;
41693;SDS011;27377;50.666;9.150;2024-02-15T02:36:05;21.55;;;14.18;;
41693;SDS011;27377;50.666;9.150;2024-02-15T02:38:53;20.35;;;14.52;;
41693;SDS011;27377;50.666;9.150;2024-02-15T02:41:37;19.70;;;14.00;;
41693;SDS011;27377;50.666;9.150;2024-02-15T02:44:21;18.13;;;13.70;;
41693;SDS011;27377;50.666;9.150;2024-02-15T02:47:05;21.08;;;13.57;;
41693;SDS011;27377;50.666;9.150;2024-02-15T02:49:49;17.55;;;13.43;;
41693;SDS011;27377;50.666;9.150;2024-02-15T02:52:33;19.73;;;13.55;;
41693;SDS011;27377;50.666;9.150;2024-02-15T02:55:18;18.45;;;13.80;;
41693;SDS011;27377;50.666;9.150;2024-02-15T02:58:02;19.00;;;13.65;;
41693;SDS011;27377;50.666;9.150;2024-02-15T03:00:49;18.88;;;13.55;;
41693;SDS011;27377;50.666;9.150;2024-02-15T03:03:33;19.63;;;12.82;;
41693;SDS011;27377;50.666;9.150;2024-02-15T03:06:18;17.33;;;12.88;;
41693;SDS011;27377;50.666;9.150;2024-02-15T03:09:02;17.17;;;12.20;;
41693;SDS011;27377;50.666;9.150;2024-02-15T03:11:50;16.48;;;11.68;;
41693;SDS011;27377;50.666;9.150;2024-02-15T03:14:34;16.33;;;11.63;;
41693;SDS011;27377;50.666;9.150;2024-02-15T03:17:19;16.90;;;11.70;;
41693;SDS011;27377;50.666;9.150;2024-02-15T03:20:07;15.98;;;11.40;;
41693;SDS011;27377;50.666;9.150;2024-02-15T03:23:03;14.70;;;11.52;;
41693;SDS011;27377;50.666;9.150;2024-02-15T03:25:47;17.65;;;12.10;;
41693;SDS011;27377;50.666;9.150;2024-02-15T03:28:32;14.57;;;11.40;;
41693;SDS011;27377;50.666;9.150;2024-02-15T03:31:19;16.08;;;11.55;;
41693;SDS011;27377;50.666;9.150;2024-02-15T03:34:03;17.20;;;11.40;;
41693;SDS011;27377;50.666;9.150;2024-02-15T03:36:48;16.23;;;11.93;;
41693;SDS011;27377;50.666;9.150;2024-02-15T03:39:37;16.90;;;12.20;;
41693;SDS011;27377;50.666;9.150;2024-02-15T03:42:21;16.88;;;12.07;;
41693;SDS011;27377;50.666;9.150;2024-02-15T03:45:05;18.42;;;12.38;;
41693;SDS011;27377;50.666;9.150;2024-02-15T03:47:50;17.73;;;12.10;;
41693;SDS011;27377;50.666;9.150;2024-02-15T03:50:35;15.82;;;11.60;;
41693;SDS011;27377;50.666;9.150;2024-02-15T03:53:20;16.35;;;11.98;;
41693;SDS011;27377;50.666;9.150;2024-02-15T03:56:04;17.65;;;11.68;;
41693;SDS011;27377;50.666;9.150;2024-02-15T03:58:48;14.93;;;11.32;;
41693;SDS011;27377;50.666;9.150;2024-02-15T04:01:34;14.55;;;11.00;;
41693;SDS011;27377;50.666;9.150;2024-02-15T04:04:18;14.65;;;10.68;;
41693;SDS011;27377;50.666;9.150;2024-02-15T04:07:04;13.57;;;10.13;;
41693;SDS011;27377;50.666;9.150;2024-02-15T04:09:48;12.80;;;10.07;;
41693;SDS011;27377;50.666;9.150;2024-02-15T04:12:33;14.85;;;10.80;;
41693;SDS011;27377;50.666;9.150;2024-02-15T04:15:18;14.98;;;11.00;;
41693;SDS011;27377;50.666;9.150;2024-02-15T04:18:02;14.80;;;11.13;;
41693;SDS011;27377;50.666;9.150;2024-02-15T04:20:47;15.68;;;11.70;;
41693;SDS011;27377;50.666;9.150;2024-02-15T04:23:32;16.25;;;11.40;;
41693;SDS011;27377;50.666;9.150;2024-02-15T04:26:17;16.55;;;12.38;;
41693;SDS011;27377;50.666;9.150;2024-02-15T04:29:03;15.20;;;12.02;;
41693;SDS011;27377;50.666;9.150;2024-02-15T04:31:47;15.38;;;11.93;;
41693;SDS011;27377;50.666;9.150;2024-02-15T04:34:35;14.60;;;11.75;;
41693;SDS011;27377;50.666;9.150;2024-02-15T04:37:22;16.67;;;12.20;;
41693;SDS011;27377;50.666;9.150;2024-02-15T04:40:06;16.25;;;12.25;;
41693;SDS011;27377;50.666;9.150;2024-02-15T04:42:54;17.20;;;12.00;;
41693;SDS011;27377;50.666;9.150;2024-02-15T04:45:43;16.08;;;11.80;;
41693;SDS011;27377;50.666;9.150;2024-02-15T04:48:36;15.05;;;11.50;;
41693;SDS011;27377;50.666;9.150;2024-02-15T04:51:24;15.63;;;11.50;;
41693;SDS011;27377;50.666;9.150;2024-02-15T04:54:14;16.77;;;11.77;;
41693;SDS011;27377;50.666;9.150;2024-02-15T04:57:04;15.75;;;12.15;;
41693;SDS011;27377;50.666;9.150;2024-02-15T04:59:53;15.40;;;11.60;;
41693;SDS011;27377;50.666;9.150;2024-02-15T05:02:41;17.92;;;12.13;;
41693;SDS011;27377;50.666;9.150;2024-02-15T05:05:31;14.52;;;11.50;;
41693;SDS011;27377;50.666;9.150;2024-02-15T05:08:19;15.77;;;11.48;;
41693;SDS011;27377;50.666;9.150;2024-02-15T05:11:07;16.80;;;12.13;;
41693;SDS011;27377;50.666;9.150;2024-02-15T05:14:09;15.90;;;11.98;;
41693;SDS011;27377;50.666;9.150;2024-02-15T05:17:04;16.20;;;12.27;;
41693;SDS011;27377;50.666;9.150;2024-02-15T05:19:55;16.93;;;12.20;;
41693;SDS011;27377;50.666;9.150;2024-02-15T05:22:46;15.75;;;11.70;;
41693;SDS011;27377;50.666;9.150;2024-02-15T05:25:40;16.50;;;11.52;;
41693;SDS011;27377;50.666;9.150;2024-02-15T05:28:31;15.65;;;11.45;;
41693;SDS011;27377;50.666;9.150;2024-02-15T05:31:17;15.93;;;10.88;;
41693;SDS011;27377;50.666;9.150;2024-02-15T05:34:10;16.25;;;11.10;;
41693;SDS011;27377;50.666;9.150;2024-02-15T05:37:01;14.10;;;10.95;;
41693;SDS011;27377;50.666;9.150;2024-02-15T05:40:01;16.83;;;10.60;;
41693;SDS011;27377;50.666;9.150;2024-02-15T05:43:02;14.30;;;10.50;;
41693;SDS011;27377;50.666;9.150;2024-02-15T05:46:00;14.33;;;9.70;;
41693;SDS011;27377;50.666;9.150;2024-02-15T05:49:02;15.27;;;10.88;;
41693;SDS011;27377;50.666;9.150;2024-02-15T05:52:12;14.38;;;10.88;;
41693;SDS011;27377;50.666;9.150;2024-02-15T05:55:24;14.70;;;10.40;;
41693;SDS011;27377;50.666;9.150;2024-02-15T05:58:19;14.45;;;10.32;;
41693;SDS011;27377;50.666;9.150;2024-02-15T06:01:07;14.57;;;10.63;;
41693;SDS011;27377;50.666;9.150;2024-02-15T06:04:20;15.73;;;10.27;;
41693;SDS011;27377;50.666;9.150;2024-02-15T06:07:09;14.18;;;10.60;;
41693;SDS011;27377;50.666;9.150;2024-02-15T06:09:57;14.02;;;10.32;;
41693;SDS011;27377;50.666;9.150;2024-02-15T06:12:55;14.53;;;10.17;;
41693;SDS011;27377;50.666;9.150;2024-02-15T06:16:03;15.88;;;10.90;;
41693;SDS011;27377;50.666;9.150;2024-02-15T06:18:59;12.98;;;10.40;;
41693;SDS011;27377;50.666;9.150;2024-02-15T06:22:23;17.77;;;11.70;;
41693;SDS011;27377;50.666;9.150;2024-02-15T06:25:23;14.40;;;11.27;;
41693;SDS011;27377;50.666;9.150;2024-02-15T06:28:08;16.25;;;11.32;;
41693;SDS011;27377;50.666;9.150;2024-02-15T06:31:27;15.93;;;11.52;;
41693;SDS011;27377;50.666;9.150;2024-02-15T06:34:45;14.68;;;11.27;;
41693;SDS011;27377;50.666;9.150;2024-02-15T06:37:51;16.88;;;11.93;;
41693;SDS011;27377;50.666;9.150;2024-02-15T06:40:58;18.13;;;11.93;;
41693;SDS011;27377;50.666;9.150;2024-02-15T06:43:52;14.50;;;11.37;;
41693;SDS011;27377;50.666;9.150;2024-02-15T06:46:58;15.68;;;11.20;;
41693;SDS011;27377;50.666;9.150;2024-02-15T06:49:59;15.38;;;11.20;;
41693;SDS011;27377;50.666;9.150;2024-02-15T06:53:18;16.35;;;11.90;;
41693;SDS011;27377;50.666;9.150;2024-02-15T06:56:04;15.27;;;11.70;;
41693;SDS011;27377;50.666;9.150;2024-02-15T06:59:25;15.82;;;11.57;;
41693;SDS011;27377;50.666;9.150;2024-02-15T07:02:10;16.35;;;11.35;;
41693;SDS011;27377;50.666;9.150;2024-02-15T07:05:02;15.48;;;11.98;;
41693;SDS011;27377;50.666;9.150;2024-02-15T07:07:50;14.60;;;11.55;;
41693;SDS011;27377;50.666;9.150;2024-02-15T07:10:44;16.48;;;12.43;;
41693;SDS011;27377;50.666;9.150;2024-02-15T07:13:29;18.88;;;13.00;;
41693;SDS011;27377;50.666;9.150;2024-02-15T07:16:30;18.17;;;12.75;;
41693;SDS011;27377;50.666;9.150;2024-02-15T07:19:25;18.50;;;13.07;;
41693;SDS011;27377;50.666;9.150;2024-02-15T07:22:20;18.63;;;12.82;;
41693;SDS011;27377;50.666;9.150;2024-02-15T07:25:06;19.17;;;13.10;;
41693;SDS011;27377;50.666;9.150;2024-02-15T07:28:07;18.67;;;13.40;;
41693;SDS011;27377;50.666;9.150;2024-02-15T07:31:05;16.67;;;12.80;;
41693;SDS011;27377;50.666;9.150;2024-02-15T07:34:02;17.50;;;13.10;;
41693;SDS011;27377;50.666;9.150;2024-02-15T07:36:55;17.83;;;12.68;;
41693;SDS011;27377;50.666;9.150;2024-02-15T07:39:49;18.00;;;12.82;;
41693;SDS011;27377;50.666;9.150;2024-02-15T07:42:34;19.10;;;12.85;;
41693;SDS011;27377;50.666;9.150;2024-02-15T07:45:27;18.23;;;12.30;;
41693;SDS011;27377;50.666;9.150;2024-02-15T07:48:16;17.80;;;13.23;;
41693;SDS011;27377;50.666;9.150;2024-02-15T07:51:06;18.58;;;13.70;;
41693;SDS011;27377;50.666;9.150;2024-02-15T07:53:53;19.05;;;13.05;;
41693;SDS011;27377;50.666;9.150;2024-02-15T07:56:41;18.45;;;13.05;;
41693;SDS011;27377;50.666;9.150;2024-02-15T07:59:25;20.10;;;12.50;;
41693;SDS011;27377;50.666;9.150;2024-02-15T08:02:17;19.05;;;12.68;;
41693;SDS011;27377;50.666;9.150;2024-02-15T08:05:07;16.90;;;12.60;;
41693;SDS011;27377;50.666;9.150;2024-02-15T08:07:58;19.20;;;12.30;;
41693;SDS011;27377;50.666;9.150;2024-02-15T08:10:50;19.70;;;12.80;;
41693;SDS011;27377;50.666;9.150;2024-02-15T08:13:35;17.80;;;12.40;;
41693;SDS011;27377;50.666;9.150;2024-02-15T08:16:22;17.00;;;12.02;;
41693;SDS011;27377;50.666;9.150;2024-02-15T08:19:14;19.67;;;11.55;;
41693;SDS011;27377;50.666;9.150;2024-02-15T08:22:07;18.73;;;11.70;;
41693;SDS011;27377;50.666;9.150;2024-02-15T08:25:10;16.10;;;10.85;;
41693;SDS011;27377;50.666;9.150;2024-02-15T08:28:04;15.73;;;11.13;;
41693;SDS011;27377;50.666;9.150;2024-02-15T08:30:52;18.33;;;11.10;;
41693;SDS011;27377;50.666;9.150;2024-02-15T08:33:40;16.52;;;10.25;;
41693;SDS011;27377;50.666;9.150;2024-02-15T08:36:27;16.90;;;11.20;;
41693;SDS011;27377;50.666;9.150;2024-02-15T08:39:11;16.60;;;10.45;;
41693;SDS011;27377;50.666;9.150;2024-02-15T08:42:07;15.13;;;10.13;;
41693;SDS011;27377;50.666;9.150;2024-02-15T08:45:00;14.52;;;10.25;;
41693;SDS011;27377;50.666;9.150;2024-02-15T08:47:44;15.50;;;9.90;;
41693;SDS011;27377;50.666;9.150;2024-02-15T08:50:29;16.42;;;9.98;;
41693;SDS011;27377;50.666;9.150;2024-02-15T08:53:16;15.07;;;9.43;;
41693;SDS011;27377;50.666;9.150;2024-02-15T08:56:08;14.40;;;9.03;;
41693;SDS011;27377;50.666;9.150;2024-02-15T08:58:53;14.48;;;8.73;;
41693;SDS011;27377;50.666;9.150;2024-02-15T09:01:41;15.02;;;8.90;;
41693;SDS011;27377;50.666;9.150;2024-02-15T09:04:27;15.83;;;8.53;;
41693;SDS011;27377;50.666;9.150;2024-02-15T09:07:48;14.40;;;7.97;;
41693;SDS011;27377;50.666;9.150;2024-02-15T09:10:36;13.70;;;7.75;;
41693;SDS011;27377;50.666;9.150;2024-02-15T09:13:23;14.45;;;7.57;;
41693;SDS011;27377;50.666;9.150;2024-02-15T09:16:10;12.88;;;7.47;;
41693;SDS011;27377;50.666;9.150;2024-02-15T09:19:08;13.05;;;7.03;;
41693;SDS011;27377;50.666;9.150;2024-02-15T09:22:02;12.32;;;6.30;;
41693;SDS011;27377;50.666;9.150;2024-02-15T09:24:53;11.60;;;6.30;;
41693;SDS011;27377;50.666;9.150;2024-02-15T09:27:40;11.18;;;6.28;;
41693;SDS011;27377;50.666;9.150;2024-02-15T09:30:28;13.45;;;6.72;;
41693;SDS011;27377;50.666;9.150;2024-02-15T09:33:25;12.73;;;6.80;;
41693;SDS011;27377;50.666;9.150;2024-02-15T09:36:36;11.25;;;6.13;;
41693;SDS011;27377;50.666;9.150;2024-02-15T09:39:22;12.82;;;6.25;;
41693;SDS011;27377;50.666;9.150;2024-02-15T09:42:07;10.90;;;6.47;;
41693;SDS011;27377;50.666;9.150;2024-02-15T09:44:55;11.20;;;6.30;;
41693;SDS011;27377;50.666;9.150;2024-02-15T09:47:40;13.80;;;6.47;;
41693;SDS011;27377;50.666;9.150;2024-02-15T09:50:32;14.18;;;7.03;;
41693;SDS011;27377;50.666;9.150;2024-02-15T09:53:39;13.40;;;6.85;;
41693;SDS011;27377;50.666;9.150;2024-02-15T09:56:33;12.70;;;6.15;;
41693;SDS011;27377;50.666;9.150;2024-02-15T09:59:22;12.55;;;6.82;;
41693;SDS011;27377;50.666;9.150;2024-02-15T10:02:22;12.65;;;6.53;;
41693;SDS011;27377;50.666;9.150;2024-02-15T10:05:12;12.13;;;6.38;;
41693;SDS011;27377;50.666;9.150;2024-02-15T10:08:10;11.60;;;6.60;;
41693;SDS011;27377;50.666;9.150;2024-02-15T10:11:18;12.38;;;6.28;;
41693;SDS011;27377;50.666;9.150;2024-02-15T10:14:11;11.37;;;6.27;;
41693;SDS011;27377;50.666;9.150;2024-02-15T10:17:08;12.52;;;6.45;;
41693;SDS011;27377;50.666;9.150;2024-02-15T10:23:31;11.00;;;5.70;;
41693;SDS011;27377;50.666;9.150;2024-02-15T10:26:28;10.83;;;5.53;;
41693;SDS011;27377;50.666;9.150;2024-02-15T10:29:13;10.57;;;5.10;;
41693;SDS011;27377;50.666;9.150;2024-02-15T10:32:00;10.52;;;4.80;;
41693;SDS011;27377;50.666;9.150;2024-02-15T10:34:45;11.30;;;4.70;;
41693;SDS011;27377;50.666;9.150;2024-02-15T10:37:30;9.75;;;4.80;;
41693;SDS011;27377;50.666;9.150;2024-02-15T10:40:19;9.83;;;4.37;;
41693;SDS011;27377;50.666;9.150;2024-02-15T10:43:04;10.93;;;4.40;;
41693;SDS011;27377;50.666;9.150;2024-02-15T10:45:51;8.95;;;3.88;;
41693;SDS011;27377;50.666;9.150;2024-02-15T10:48:38;7.33;;;4.10;;
41693;SDS011;27377;50.666;9.150;2024-02-15T10:51:23;10.20;;;3.90;;
41693;SDS011;27377;50.666;9.150;2024-02-15T10:54:09;7.68;;;3.72;;
41693;SDS011;27377;50.666;9.150;2024-02-15T10:56:59;7.65;;;3.60;;
41693;SDS011;27377;50.666;9.150;2024-02-15T10:59:51;7.78;;;3.45;;
41693;SDS011;27377;50.666;9.150;2024-02-15T11:02:37;7.15;;;3.30;;
41693;SDS011;27377;50.666;9.150;2024-02-15T11:05:26;7.57;;;3.20;;
41693;SDS011;27377;50.666;9.150;2024-02-15T11:08:10;10.13;;;3.10;;
41693;SDS011;27377;50.666;9.150;2024-02-15T11:10:55;8.80;;;3.15;;
41693;SDS011;27377;50.666;9.150;2024-02-15T11:13:42;8.75;;;3.00;;
41693;SDS011;27377;50.666;9.150;2024-02-15T11:16:39;7.50;;;2.70;;
41693;SDS011;27377;50.666;9.150;2024-02-15T11:22:24;7.73;;;2.73;;
41693;SDS011;27377;50.666;9.150;2024-02-15T11:25:09;10.55;;;2.97;;
41693;SDS011;27377;50.666;9.150;2024-02-15T11:27:55;6.87;;;2.40;;
41693;SDS011;27377;50.666;9.150;2024-02-15T11:30:40;7.80;;;2.73;;
41693;SDS011;27377;50.666;9.150;2024-02-15T11:33:29;7.37;;;2.80;;
41693;SDS011;27377;50.666;9.150;2024-02-15T11:36:20;5.75;;;2.30;;
41693;SDS011;27377;50.666;9.150;2024-02-15T11:42:29;6.97;;;2.35;;
41693;SDS011;27377;50.666;9.150;2024-02-15T11:45:13;6.82;;;2.25;;
41693;SDS011;27377;50.666;9.150;2024-02-15T11:48:01;7.40;;;2.38;;
41693;SDS011;27377;50.666;9.150;2024-02-15T11:50:46;6.13;;;2.10;;
41693;SDS011;27377;50.666;9.150;2024-02-15T11:53:30;6.22;;;1.95;;
41693;SDS011;27377;50.666;9.150;2024-02-15T11:56:14;5.82;;;2.00;;
41693;SDS011;27377;50.666;9.150;2024-02-15T11:59:04;6.68;;;1.90;;
41693;SDS011;27377;50.666;9.150;2024-02-15T12:01:52;6.63;;;2.00;;
41693;SDS011;27377;50.666;9.150;2024-02-15T12:04:55;6.50;;;2.10;;
41693;SDS011;27377;50.666;9.150;2024-02-15T12:07:58;8.73;;;2.17;;
41693;SDS011;27377;50.666;9.150;2024-02-15T12:11:03;7.25;;;1.88;;
41693;SDS011;27377;50.666;9.150;2024-02-15T12:14:06;7.38;;;1.90;;
41693;SDS011;27377;50.666;9.150;2024-02-15T12:17:14;6.60;;;2.10;;
41693;SDS011;27377;50.666;9.150;2024-02-15T12:20:17;5.15;;;2.00;;
41693;SDS011;27377;50.666;9.150;2024-02-15T12:23:08;5.70;;;1.90;;
41693;SDS011;27377;50.666;9.150;2024-02-15T12:25:53;7.00;;;1.98;;
41693;SDS011;27377;50.666;9.150;2024-02-15T12:28:37;6.00;;;2.00;;
41693;SDS011;27377;50.666;9.150;2024-02-15T12:31:22;9.82;;;1.75;;
41693;SDS011;27377;50.666;9.150;2024-02-15T12:34:09;6.80;;;1.80;;
41693;SDS011;27377;50.666;9.150;2024-02-15T12:37:04;5.90;;;1.92;;
41693;SDS011;27377;50.666;9.150;2024-02-15T12:39:52;4.47;;;1.60;;
41693;SDS011;27377;50.666;9.150;2024-02-15T12:42:40;6.35;;;1.77;;
41693;SDS011;27377;50.666;9.150;2024-02-15T12:45:25;6.45;;;2.13;;
41693;SDS011;27377;50.666;9.150;2024-02-15T12:48:13;6.63;;;2.03;;
41693;SDS011;27377;50.666;9.150;2024-02-15T12:50:59;6.55;;;1.80;;
41693;SDS011;27377;50.666;9.150;2024-02-15T12:53:43;4.87;;;1.80;;
41693;SDS011;27377;50.666;9.150;2024-02-15T12:56:27;5.25;;;1.80;;
41693;SDS011;27377;50.666;9.150;2024-02-15T12:59:11;5.78;;;1.65;;
41693;SDS011;27377;50.666;9.150;2024-02-15T13:01:55;4.63;;;1.80;;
41693;SDS011;27377;50.666;9.150;2024-02-15T13:04:39;5.43;;;1.77;;
41693;SDS011;27377;50.666;9.150;2024-02-15T13:07:23;6.72;;;2.10;;
41693;SDS011;27377;50.666;9.150;2024-02-15T13:10:08;5.13;;;1.73;;
41693;SDS011;27377;50.666;9.150;2024-02-15T13:12:53;5.07;;;1.80;;
41693;SDS011;27377;50.666;9.150;2024-02-15T13:15:37;6.00;;;1.87;;
41693;SDS011;27377;50.666;9.150;2024-02-15T13:18:21;4.38;;;1.55;;
41693;SDS011;27377;50.666;9.150;2024-02-15T13:21:05;6.33;;;1.70;;
41693;SDS011;27377;50.666;9.150;2024-02-15T13:23:49;5.43;;;2.10;;
41693;SDS011;27377;50.666;9.150;2024-02-15T13:26:33;5.90;;;1.80;;
41693;SDS011;27377;50.666;9.150;2024-02-15T13:29:18;5.28;;;1.63;;
41693;SDS011;27377;50.666;9.150;2024-02-15T13:32:02;5.65;;;1.60;;
41693;SDS011;27377;50.666;9.150;2024-02-15T13:34:49;6.30;;;2.25;;
41693;SDS011;27377;50.666;9.150;2024-02-15T13:37:40;5.40;;;1.73;;
41693;SDS011;27377;50.666;9.150;2024-02-15T13:40:30;5.88;;;1.60;;
41693;SDS011;27377;50.666;9.150;2024-02-15T13:43:15;5.77;;;1.63;;
41693;SDS011;27377;50.666;9.150;2024-02-15T13:46:00;4.93;;;1.77;;
41693;SDS011;27377;50.666;9.150;2024-02-15T13:48:44;6.43;;;1.77;;
41693;SDS011;27377;50.666;9.150;2024-02-15T13:51:29;4.40;;;1.60;;
41693;SDS011;27377;50.666;9.150;2024-02-15T13:54:14;5.80;;;1.60;;
41693;SDS011;27377;50.666;9.150;2024-02-15T13:56:59;5.63;;;1.70;;
41693;SDS011;27377;50.666;9.150;2024-02-15T13:59:44;6.63;;;1.70;;
41693;SDS011;27377;50.666;9.150;2024-02-15T14:02:29;6.72;;;1.50;;
41693;SDS011;27377;50.666;9.150;2024-02-15T14:05:12;6.18;;;1.80;;
41693;SDS011;27377;50.666;9.150;2024-02-15T14:08:00;4.93;;;1.30;;
41693;SDS011;27377;50.666;9.150;2024-02-15T14:10:55;6.63;;;1.58;;
41693;SDS011;27377;50.666;9.150;2024-02-15T14:13:39;3.63;;;1.48;;
41693;SDS011;27377;50.666;9.150;2024-02-15T14:16:24;6.30;;;1.60;;
41693;SDS011;27377;50.666;9.150;2024-02-15T14:19:08;4.30;;;1.63;;
41693;SDS011;27377;50.666;9.150;2024-02-15T14:21:52;5.13;;;1.57;;
41693;SDS011;27377;50.666;9.150;2024-02-15T14:24:38;5.47;;;1.50;;
41693;SDS011;27377;50.666;9.150;2024-02-15T14:27:22;4.40;;;1.50;;
41693;SDS011;27377;50.666;9.150;2024-02-15T14:30:07;9.45;;;1.80;;
41693;SDS011;27377;50.666;9.150;2024-02-15T14:33:11;5.20;;;1.53;;
41693;SDS011;27377;50.666;9.150;2024-02-15T14:35:59;5.53;;;1.63;;
41693;SDS011;27377;50.666;9.150;2024-02-15T14:38:43;6.57;;;1.60;;
41693;SDS011;27377;50.666;9.150;2024-02-15T14:41:28;5.07;;;1.50;;
41693;SDS011;27377;50.666;9.150;2024-02-15T14:44:12;5.10;;;1.42;;
41693;SDS011;27377;50.666;9.150;2024-02-15T14:46:57;5.13;;;1.48;;
41693;SDS011;27377;50.666;9.150;2024-02-15T14:49:41;6.18;;;1.60;;
41693;SDS011;27377;50.666;9.150;2024-02-15T14:52:25;4.28;;;1.80;;
41693;SDS011;27377;50.666;9.150;2024-02-15T14:55:10;6.50;;;1.85;;
41693;SDS011;27377;50.666;9.150;2024-02-15T14:57:54;12.60;;;2.03;;
41693;SDS011;27377;50.666;9.150;2024-02-15T15:00:41;11.10;;;2.40;;
41693;SDS011;27377;50.666;9.150;2024-02-15T15:03:30;6.13;;;1.83;;
41693;SDS011;27377;50.666;9.150;2024-02-15T15:06:21;7.35;;;2.13;;
41693;SDS011;27377;50.666;9.150;2024-02-15T15:09:24;7.85;;;2.28;;
41693;SDS011;27377;50.666;9.150;2024-02-15T15:12:27;6.07;;;1.90;;
41693;SDS011;27377;50.666;9.150;2024-02-15T15:15:23;7.35;;;2.20;;
41693;SDS011;27377;50.666;9.150;2024-02-15T15:18:07;5.82;;;2.30;;
41693;SDS011;27377;50.666;9.150;2024-02-15T15:20:55;7.70;;;2.20;;
41693;SDS011;27377;50.666;9.150;2024-02-15T15:23:40;7.47;;;2.50;;
41693;SDS011;27377;50.666;9.150;2024-02-15T15:26:26;7.57;;;2.65;;
41693;SDS011;27377;50.666;9.150;2024-02-15T15:29:10;7.53;;;2.53;;
41693;SDS011;27377;50.666;9.150;2024-02-15T15:31:55;8.27;;;2.60;;
41693;SDS011;27377;50.666;9.150;2024-02-15T15:34:39;7.85;;;2.97;;
41693;SDS011;27377;50.666;9.150;2024-02-15T15:37:24;7.53;;;2.42;;
41693;SDS011;27377;50.666;9.150;2024-02-15T15:40:08;8.97;;;2.57;;
41693;SDS011;27377;50.666;9.150;2024-02-15T15:42:54;6.30;;;2.10;;
41693;SDS011;27377;50.666;9.150;2024-02-15T15:45:38;6.45;;;2.10;;
41693;SDS011;27377;50.666;9.150;2024-02-15T15:48:23;7.00;;;2.00;;
41693;SDS011;27377;50.666;9.150;2024-02-15T15:51:07;5.63;;;2.10;;
41693;SDS011;27377;50.666;9.150;2024-02-15T15:53:53;4.33;;;1.40;;
41693;SDS011;27377;50.666;9.150;2024-02-15T15:56:38;3.85;;;1.45;;
41693;SDS011;27377;50.666;9.150;2024-02-15T15:59:25;5.30;;;1.40;;
41693;SDS011;27377;50.666;9.150;2024-02-15T16:02:19;4.95;;;1.50;;
41693;SDS011;27377;50.666;9.150;2024-02-15T16:05:05;5.80;;;1.20;;
41693;SDS011;27377;50.666;9.150;2024-02-15T16:07:53;3.58;;;1.30;;
41693;SDS011;27377;50.666;9.150;2024-02-15T16:14:03;4.70;;;1.33;;
41693;SDS011;27377;50.666;9.150;2024-02-15T16:16:55;3.53;;;1.20;;
41693;SDS011;27377;50.666;9.150;2024-02-15T16:19:43;3.60;;;1.30;;
41693;SDS011;27377;50.666;9.150;2024-02-15T16:22:30;3.63;;;1.30;;
41693;SDS011;27377;50.666;9.150;2024-02-15T16:25:42;5.23;;;1.30;;
41693;SDS011;27377;50.666;9.150;2024-02-15T16:28:43;4.15;;;1.65;;
41693;SDS011;27377;50.666;9.150;2024-02-15T16:31:38;3.83;;;1.23;;
41693;SDS011;27377;50.666;9.150;2024-02-15T16:34:25;5.78;;;1.40;;
41693;SDS011;27377;50.666;9.150;2024-02-15T16:37:17;5.13;;;1.93;;
41693;SDS011;27377;50.666;9.150;2024-02-15T16:40:13;4.30;;;1.88;;
41693;SDS011;27377;50.666;9.150;2024-02-15T16:42:58;4.97;;;1.87;;
41693;SDS011;27377;50.666;9.150;2024-02-15T16:45:48;6.30;;;2.30;;
41693;SDS011;27377;50.666;9.150;2024-02-15T16:48:39;4.43;;;1.83;;
41693;SDS011;27377;50.666;9.150;2024-02-15T16:51:44;5.20;;;1.80;;
41693;SDS011;27377;50.666;9.150;2024-02-15T16:54:37;5.85;;;1.70;;
41693;SDS011;27377;50.666;9.150;2024-02-15T16:57:37;4.93;;;1.80;;
41693;SDS011;27377;50.666;9.150;2024-02-15T17:00:28;4.88;;;1.80;;